Kumanomaru — JI3406 — position and weather

sailwx.info

Track history (hours):
 
Tides and Currents Weather Stations Pressure Air Temp Water Temp Dewpoint Dewpoint Depression Visibility Wind Speed Wind Dir Waves Ship Positions

Kumanomaru

Last reported at 2017-Dec-10 20:37 UTC. Time now 2017-Dec-12 08:32 UTC.
Position N 33°56' E 132°39'.

Length 28 m.

Type: Towing. MMSI: 431400837.

Date/timePositionNaut miles runAvg speedWind from/ knotsBaromVisibWave heightAir tempDewpointWater temp
2017-Dec-10 20:37N 33°56' E 132°39'1 6.8
2017-Dec-10 20:24N 33°57' E 132°41'107 6.6
2017-Dec-10 04:17N 34°32' E 134°43'5 9.1
2017-Dec-10 03:41N 34°34' E 134°49'210.3
2017-Dec-10 03:27N 34°35' E 134°51'510.5
2017-Dec-10 03:00N 34°37' E 134°57'5 9.6
2017-Dec-10 02:30N 34°37' E 135°03'4 8.3
2017-Dec-10 02:00N 34°36' E 135°08'4 8.4
2017-Dec-10 01:30N 34°37' E 135°12'4 8.3
2017-Dec-10 01:00N 34°38' E 135°17'4 8.4
2017-Dec-10 00:30N 34°40' E 135°22'3 5.3
2017-Dec-10 00:00N 34°39' E 135°25'2 3.2
2017-Dec-09 23:28N 34°40' E 135°27'0 0.2
2017-Dec-09 23:00N 34°40' E 135°27'0 0.2
2017-Dec-09 22:28N 34°40' E 135°27'0 0.0
2017-Dec-09 21:58N 34°40' E 135°27'0 0.0
2017-Dec-09 21:28N 34°40' E 135°27'0 0.0
2017-Dec-09 20:58N 34°40' E 135°27'0 0.0
2017-Dec-09 20:28N 34°40' E 135°27'0 0.0
2017-Dec-09 19:55N 34°40' E 135°27'0 0.0
2017-Dec-09 19:28N 34°40' E 135°27'0 0.0
2017-Dec-09 18:55N 34°40' E 135°27'0 0.0
2017-Dec-09 18:28N 34°40' E 135°27'0 0.0
2017-Dec-09 17:58N 34°40' E 135°27'0 0.0
2017-Dec-09 17:28N 34°40' E 135°27'0 0.0
2017-Dec-09 16:58N 34°40' E 135°27'0 0.0
2017-Dec-09 16:28N 34°40' E 135°27'0 0.0
2017-Dec-09 15:58N 34°40' E 135°27'0 0.0
2017-Dec-09 15:28N 34°40' E 135°27'0 0.0
2017-Dec-09 14:58N 34°40' E 135°27'0 0.0
2017-Dec-09 14:28N 34°40' E 135°27'0 0.0
2017-Dec-09 13:58N 34°40' E 135°27'0 0.0
2017-Dec-09 13:28N 34°40' E 135°27'0 0.0
2017-Dec-09 12:58N 34°40' E 135°27'0 0.0
2017-Dec-09 12:28N 34°40' E 135°27'0 0.0
2017-Dec-09 11:58N 34°40' E 135°27'0 0.0
2017-Dec-09 11:25N 34°40' E 135°27'0 0.0
2017-Dec-09 10:55N 34°40' E 135°27'0 0.0
2017-Dec-09 10:19N 34°40' E 135°27'0 0.0
2017-Dec-09 09:58N 34°40' E 135°27'0 0.0
2017-Dec-09 09:25N 34°40' E 135°27'0 0.0
2017-Dec-09 08:58N 34°40' E 135°27'0 0.0
2017-Dec-09 08:28N 34°40' E 135°27'0 0.0
2017-Dec-09 07:58N 34°40' E 135°27'0 0.0
2017-Dec-09 07:25N 34°40' E 135°27'0 0.0
2017-Dec-09 06:58N 34°40' E 135°27'0 0.0
2017-Dec-09 06:25N 34°40' E 135°27'0 0.0
2017-Dec-09 05:55N 34°40' E 135°27'0 0.0
2017-Dec-09 05:28N 34°40' E 135°27'0 0.0
2017-Dec-09 04:58N 34°40' E 135°27'0 0.0
2017-Dec-09 04:28N 34°40' E 135°27'0 0.0
2017-Dec-09 03:55N 34°40' E 135°27'0 0.0
2017-Dec-09 03:25N 34°40' E 135°27'0 0.0
2017-Dec-09 02:58N 34°40' E 135°27'0 0.0
2017-Dec-09 02:28N 34°40' E 135°27'0 0.0
2017-Dec-09 01:58N 34°40' E 135°27'0 0.0
2017-Dec-09 01:28N 34°40' E 135°27'0 0.0
2017-Dec-09 00:58N 34°40' E 135°27'0 0.5
2017-Dec-09 00:30N 34°40' E 135°27'3 6.4
2017-Dec-09 00:00N 34°39' E 135°24'510.3
2017-Dec-08 23:30N 34°36' E 135°18'510.5
2017-Dec-08 23:00N 34°35' E 135°12'611.1
2017-Dec-08 22:30N 34°35' E 135°05'611.2
2017-Dec-08 22:00N 34°37' E 134°59'5 8.5
2017-Dec-08 21:28N 34°35' E 134°54'4 8.6
2017-Dec-08 21:00N 34°33' E 134°50'4 7.3
2017-Dec-08 20:25N 34°32' E 134°45'109 7.4
2017-Dec-08 05:39N 34°12' E 132°35'210.7
2017-Dec-08 05:29N 34°11' E 132°33'3 4.4
2017-Dec-08 04:46N 34°15' E 132°33'0 0.0
2017-Dec-08 04:28N 34°15' E 132°33'0 0.4
2017-Dec-08 03:58N 34°15' E 132°33'0 0.0
2017-Dec-08 03:25N 34°15' E 132°33'0 0.0
2017-Dec-08 02:58N 34°15' E 132°33'0 0.0
2017-Dec-08 02:28N 34°15' E 132°33'0 0.0
2017-Dec-08 01:55N 34°15' E 132°33'0 0.0
2017-Dec-08 01:28N 34°15' E 132°33'0 0.0
2017-Dec-08 00:40N 34°15' E 132°33'0 0.0
2017-Dec-08 00:22N 34°15' E 132°33'0 0.0
2017-Dec-07 23:58N 34°15' E 132°33'0 0.0
2017-Dec-07 23:10N 34°15' E 132°33'0 0.0
2017-Dec-07 22:55N 34°15' E 132°33'0 0.0
2017-Dec-07 22:28N 34°15' E 132°33'0 0.0
2017-Dec-07 21:55N 34°15' E 132°33'0 0.0
2017-Dec-07 21:28N 34°15' E 132°33'0 0.0
2017-Dec-07 20:55N 34°15' E 132°33'0 0.0
2017-Dec-07 20:25N 34°15' E 132°33'0 0.0
2017-Dec-07 19:58N 34°15' E 132°33'0 0.0
2017-Dec-07 19:25N 34°15' E 132°33'0 0.0
2017-Dec-07 18:58N 34°15' E 132°33'0 0.0
2017-Dec-07 18:28N 34°15' E 132°33'0 0.0
2017-Dec-07 17:55N 34°15' E 132°33'0 0.0
2017-Dec-07 17:25N 34°15' E 132°33'0 0.0
2017-Dec-07 16:58N 34°15' E 132°33'0 0.0
2017-Dec-07 16:25N 34°15' E 132°33'0 0.0
2017-Dec-07 15:55N 34°15' E 132°33'0 0.0
2017-Dec-07 15:10N 34°15' E 132°33'0 0.0
2017-Dec-07 14:52N 34°15' E 132°33'0 0.0
2017-Dec-07 14:25N 34°15' E 132°33'0 0.0
2017-Dec-07 13:58N 34°15' E 132°33'0 0.0
2017-Dec-07 13:28N 34°15' E 132°33'0 0.0
2017-Dec-07 12:58N 34°15' E 132°33'0 0.0
2017-Dec-07 12:28N 34°15' E 132°33'0 0.0
2017-Dec-07 11:55N 34°15' E 132°33'0 0.0
2017-Dec-07 11:28N 34°15' E 132°33'0 0.0
2017-Dec-07 10:49N 34°15' E 132°33'0 0.0
2017-Dec-07 10:16N 34°15' E 132°33'0 0.0
2017-Dec-07 09:58N 34°15' E 132°33'0 0.0
2017-Dec-07 09:25N 34°15' E 132°33'0 0.0
2017-Dec-07 08:58N 34°15' E 132°33'0 0.0
2017-Dec-07 08:28N 34°15' E 132°33'0 0.0
2017-Dec-07 07:58N 34°15' E 132°33'0 0.0
2017-Dec-07 07:28N 34°15' E 132°33'0 0.0
2017-Dec-07 06:55N 34°15' E 132°33'0 0.0
2017-Dec-07 06:16N 34°15' E 132°33'0 0.0
2017-Dec-07 05:55N 34°15' E 132°33'0 0.0
2017-Dec-07 05:28N 34°15' E 132°33'0 0.0
2017-Dec-07 04:58N 34°15' E 132°33'0 0.0
2017-Dec-07 04:16N 34°15' E 132°33'0 0.0
2017-Dec-07 03:58N 34°15' E 132°33'0 0.0
2017-Dec-07 03:19N 34°15' E 132°33'0 0.0
2017-Dec-07 02:49N 34°15' E 132°33'0 0.0
2017-Dec-07 02:25N 34°15' E 132°33'0 0.0
2017-Dec-07 01:55N 34°15' E 132°33'0 0.0
2017-Dec-07 01:19N 34°15' E 132°33'0 0.0
2017-Dec-07 00:58N 34°15' E 132°33'0 0.0
2017-Dec-07 00:28N 34°15' E 132°33'0 0.0
2017-Dec-06 23:58N 34°15' E 132°33'0 0.0
2017-Dec-06 23:28N 34°15' E 132°33'0 0.0
2017-Dec-06 22:58N 34°15' E 132°33'0 0.0
2017-Dec-06 22:28N 34°15' E 132°33'0 0.0
2017-Dec-06 21:58N 34°15' E 132°33'0 0.0
2017-Dec-06 21:13N 34°15' E 132°33'0 0.0
2017-Dec-06 20:58N 34°15' E 132°33'  
2017-Dec-04 10:25N 34°15' E 132°33'0 0.0
2017-Dec-04 09:58N 34°15' E 132°33'0 0.0
2017-Dec-04 09:28N 34°15' E 132°33'0 0.0
2017-Dec-04 08:58N 34°15' E 132°33'0 0.0
2017-Dec-04 08:28N 34°15' E 132°33'0 0.0
2017-Dec-04 07:55N 34°15' E 132°33'0 0.0
2017-Dec-04 07:28N 34°15' E 132°33'0 0.0
2017-Dec-04 06:58N 34°15' E 132°33'0 0.0
2017-Dec-04 06:25N 34°15' E 132°33'0 0.0
2017-Dec-04 05:49N 34°15' E 132°33'0 0.2
2017-Dec-04 05:30N 34°15' E 132°33'2 4.2
2017-Dec-04 04:57N 34°16' E 132°30'2 4.8
2017-Dec-04 04:30N 34°15' E 132°32'0 0.8
2017-Dec-04 04:00N 34°15' E 132°33'0 0.0
2017-Dec-04 03:30N 34°15' E 132°33'0 0.0
2017-Dec-04 03:00N 34°15' E 132°33'0 0.0
2017-Dec-04 02:30N 34°15' E 132°33'0 0.0
2017-Dec-04 02:00N 34°15' E 132°33'0 0.0
2017-Dec-04 01:30N 34°15' E 132°33'0 0.0
2017-Dec-04 00:57N 34°15' E 132°33'0 0.0
2017-Dec-04 00:26N 34°15' E 132°33'0 0.0
2017-Dec-03 23:59N 34°15' E 132°33'0 0.0
2017-Dec-03 23:29N 34°15' E 132°33'0 0.0
2017-Dec-03 22:59N 34°15' E 132°33'0 0.0
2017-Dec-03 22:29N 34°15' E 132°33'0 0.0
2017-Dec-03 21:56N 34°15' E 132°33'0 0.0
2017-Dec-03 21:20N 34°15' E 132°33'0 0.0
2017-Dec-03 20:59N 34°15' E 132°33'0 0.0
2017-Dec-03 20:23N 34°15' E 132°33'0 0.0
2017-Dec-03 19:59N 34°15' E 132°33'0 0.0
2017-Dec-03 19:29N 34°15' E 132°33'0 0.0
2017-Dec-03 18:53N 34°15' E 132°33'0 0.0
2017-Dec-03 18:29N 34°15' E 132°33'0 0.0
2017-Dec-03 17:56N 34°15' E 132°33'0 0.0
2017-Dec-03 17:29N 34°15' E 132°33'0 0.0
2017-Dec-03 16:59N 34°15' E 132°33'0 0.0
2017-Dec-03 16:29N 34°15' E 132°33'0 0.0
2017-Dec-03 15:59N 34°15' E 132°33'0 0.0
2017-Dec-03 15:29N 34°15' E 132°33'0 0.0
2017-Dec-03 14:59N 34°15' E 132°33'0 0.0
2017-Dec-03 14:29N 34°15' E 132°33'0 0.0
2017-Dec-03 13:59N 34°15' E 132°33'0 0.0
2017-Dec-03 13:29N 34°15' E 132°33'0 0.0
2017-Dec-03 12:23N 34°15' E 132°33'0 0.0
2017-Dec-03 11:59N 34°15' E 132°33'0 0.0
2017-Dec-03 11:23N 34°15' E 132°33'0 0.0
2017-Dec-03 10:59N 34°15' E 132°33'0 0.0
2017-Dec-03 10:29N 34°15' E 132°33'0 0.0
2017-Dec-03 09:59N 34°15' E 132°33'0 0.0
2017-Dec-03 09:26N 34°15' E 132°33'0 0.0
2017-Dec-03 08:59N 34°15' E 132°33'0 0.0
2017-Dec-03 08:29N 34°15' E 132°33'0 0.0
2017-Dec-03 07:56N 34°15' E 132°33'0 0.0
2017-Dec-03 07:14N 34°15' E 132°33'0 0.0
2017-Dec-03 06:53N 34°15' E 132°33'0 0.0
2017-Dec-03 06:23N 34°15' E 132°33'0 0.0
2017-Dec-03 05:50N 34°15' E 132°33'0 0.0
2017-Dec-03 05:26N 34°15' E 132°33'0 0.0
2017-Dec-03 04:59N 34°15' E 132°33'0 0.0
2017-Dec-03 04:29N 34°15' E 132°33'0 0.0
2017-Dec-03 03:53N 34°15' E 132°33'0 0.0
2017-Dec-03 03:26N 34°15' E 132°33'0 0.0
2017-Dec-03 02:59N 34°15' E 132°33'0 0.0
2017-Dec-03 02:29N 34°15' E 132°33'0 0.0
2017-Dec-03 01:53N 34°15' E 132°33'0 0.0
2017-Dec-03 01:29N 34°15' E 132°33'0 0.0
2017-Dec-03 00:53N 34°15' E 132°33'0 0.0
2017-Dec-03 00:23N 34°15' E 132°33'0 0.0
2017-Dec-02 23:56N 34°15' E 132°33'0 0.0
2017-Dec-02 23:29N 34°15' E 132°33'0 0.0
2017-Dec-02 22:55N 34°15' E 132°33'0 0.0
2017-Dec-02 22:14N 34°15' E 132°33'0 0.0
2017-Dec-02 21:59N 34°15' E 132°33'0 0.0
2017-Dec-02 21:29N 34°15' E 132°33'0 0.0
2017-Dec-02 20:47N 34°15' E 132°33'0 0.0
2017-Dec-02 20:26N 34°15' E 132°33'0 0.0
2017-Dec-02 19:59N 34°15' E 132°33'0 0.0
2017-Dec-02 19:29N 34°15' E 132°33'0 0.0
2017-Dec-02 18:59N 34°15' E 132°33'0 0.0
2017-Dec-02 18:29N 34°15' E 132°33'0 0.0
2017-Dec-02 17:59N 34°15' E 132°33'0 0.0
2017-Dec-02 17:29N 34°15' E 132°33'0 0.0
2017-Dec-02 16:53N 34°15' E 132°33'0 0.0
2017-Dec-02 16:29N 34°15' E 132°33'0 0.0
2017-Dec-02 15:59N 34°15' E 132°33'0 0.0
2017-Dec-02 15:29N 34°15' E 132°33'0 0.0
2017-Dec-02 14:59N 34°15' E 132°33'0 0.0
2017-Dec-02 14:29N 34°15' E 132°33'0 0.0
2017-Dec-02 13:59N 34°15' E 132°33'0 0.0
2017-Dec-02 13:29N 34°15' E 132°33'0 0.0
2017-Dec-02 12:59N 34°15' E 132°33'0 0.0
2017-Dec-02 12:26N 34°15' E 132°33'0 0.0
2017-Dec-02 11:59N 34°15' E 132°33'0 0.0
2017-Dec-02 11:26N 34°15' E 132°33'0 0.0
2017-Dec-02 10:59N 34°15' E 132°33'0 0.0
2017-Dec-02 10:29N 34°15' E 132°33'0 0.0
2017-Dec-02 09:59N 34°15' E 132°33'0 0.0
2017-Dec-02 09:23N 34°15' E 132°33'0 0.0
2017-Dec-02 08:59N 34°15' E 132°33'0 0.0
2017-Dec-02 08:23N 34°15' E 132°33'0 0.0
2017-Dec-02 07:53N 34°15' E 132°33'0 0.0
2017-Dec-02 07:23N 34°15' E 132°33'0 0.0
2017-Dec-02 06:53N 34°15' E 132°33'0 0.9
2017-Dec-02 06:29N 34°15' E 132°32'1 2.4
2017-Dec-02 06:00N 34°14' E 132°32'10 4.3
2017-Dec-02 03:35N 34°04' E 132°36'1 8.4
2017-Dec-02 03:30N 34°04' E 132°37'108 6.5
2017-Dec-01 10:44N 34°32' E 134°43'6 8.3
2017-Dec-01 10:04N 34°34' E 134°50'1 9.5
2017-Dec-01 09:59N 34°35' E 134°51'5 9.4
2017-Dec-01 09:30N 34°36' E 134°56'5 9.0
2017-Dec-01 09:00N 34°37' E 135°01'4 9.1
2017-Dec-01 08:30N 34°35' E 135°06'4 8.6
2017-Dec-01 08:00N 34°31' E 135°04'4 8.2
2017-Dec-01 07:30N 34°27' E 135°03'4 7.9
2017-Dec-01 07:00N 34°23' E 135°02'4 7.4
2017-Dec-01 06:30N 34°19' E 135°00'4 7.1
2017-Dec-01 06:00N 34°16' E 134°60'  
Track history (hours):
 
Tides and Currents Weather Stations Pressure Air Temp Water Temp Dewpoint Dewpoint Depression Visibility Wind Speed Wind Dir Waves Ship Positions

Kumanomaru

Last reported at 2017-Dec-10 20:37 UTC. Time now 2017-Dec-12 08:32 UTC.
Position N 33°56' E 132°39'.

Length 28 m.

Type: Towing. MMSI: 431400837.

Date/timePositionNaut miles runAvg speedWind from/ knotsBaromVisibWave heightAir tempDewpointWater temp
2017-Dec-10 20:37N 33°56' E 132°39'1 6.8
2017-Dec-10 20:24N 33°57' E 132°41'107 6.6
2017-Dec-10 04:17N 34°32' E 134°43'5 9.1
2017-Dec-10 03:41N 34°34' E 134°49'210.3
2017-Dec-10 03:27N 34°35' E 134°51'510.5
2017-Dec-10 03:00N 34°37' E 134°57'5 9.6
2017-Dec-10 02:30N 34°37' E 135°03'4 8.3
2017-Dec-10 02:00N 34°36' E 135°08'4 8.4
2017-Dec-10 01:30N 34°37' E 135°12'4 8.3
2017-Dec-10 01:00N 34°38' E 135°17'4 8.4
2017-Dec-10 00:30N 34°40' E 135°22'3 5.3
2017-Dec-10 00:00N 34°39' E 135°25'2 3.2
2017-Dec-09 23:28N 34°40' E 135°27'0 0.2
2017-Dec-09 23:00N 34°40' E 135°27'0 0.2
2017-Dec-09 22:28N 34°40' E 135°27'0 0.0
2017-Dec-09 21:58N 34°40' E 135°27'0 0.0
2017-Dec-09 21:28N 34°40' E 135°27'0 0.0
2017-Dec-09 20:58N 34°40' E 135°27'0 0.0
2017-Dec-09 20:28N 34°40' E 135°27'0 0.0
2017-Dec-09 19:55N 34°40' E 135°27'0 0.0
2017-Dec-09 19:28N 34°40' E 135°27'0 0.0
2017-Dec-09 18:55N 34°40' E 135°27'0 0.0
2017-Dec-09 18:28N 34°40' E 135°27'0 0.0
2017-Dec-09 17:58N 34°40' E 135°27'0 0.0
2017-Dec-09 17:28N 34°40' E 135°27'0 0.0
2017-Dec-09 16:58N 34°40' E 135°27'0 0.0
2017-Dec-09 16:28N 34°40' E 135°27'0 0.0
2017-Dec-09 15:58N 34°40' E 135°27'0 0.0
2017-Dec-09 15:28N 34°40' E 135°27'0 0.0
2017-Dec-09 14:58N 34°40' E 135°27'0 0.0
2017-Dec-09 14:28N 34°40' E 135°27'0 0.0
2017-Dec-09 13:58N 34°40' E 135°27'0 0.0
2017-Dec-09 13:28N 34°40' E 135°27'0 0.0
2017-Dec-09 12:58N 34°40' E 135°27'0 0.0
2017-Dec-09 12:28N 34°40' E 135°27'0 0.0
2017-Dec-09 11:58N 34°40' E 135°27'0 0.0
2017-Dec-09 11:25N 34°40' E 135°27'0 0.0
2017-Dec-09 10:55N 34°40' E 135°27'0 0.0
2017-Dec-09 10:19N 34°40' E 135°27'0 0.0
2017-Dec-09 09:58N 34°40' E 135°27'0 0.0
2017-Dec-09 09:25N 34°40' E 135°27'0 0.0
2017-Dec-09 08:58N 34°40' E 135°27'0 0.0
2017-Dec-09 08:28N 34°40' E 135°27'0 0.0
2017-Dec-09 07:58N 34°40' E 135°27'0 0.0
2017-Dec-09 07:25N 34°40' E 135°27'0 0.0
2017-Dec-09 06:58N 34°40' E 135°27'0 0.0
2017-Dec-09 06:25N 34°40' E 135°27'0 0.0
2017-Dec-09 05:55N 34°40' E 135°27'0 0.0
2017-Dec-09 05:28N 34°40' E 135°27'0 0.0
2017-Dec-09 04:58N 34°40' E 135°27'0 0.0
2017-Dec-09 04:28N 34°40' E 135°27'0 0.0
2017-Dec-09 03:55N 34°40' E 135°27'0 0.0
2017-Dec-09 03:25N 34°40' E 135°27'0 0.0
2017-Dec-09 02:58N 34°40' E 135°27'0 0.0
2017-Dec-09 02:28N 34°40' E 135°27'0 0.0
2017-Dec-09 01:58N 34°40' E 135°27'0 0.0
2017-Dec-09 01:28N 34°40' E 135°27'0 0.0
2017-Dec-09 00:58N 34°40' E 135°27'0 0.5
2017-Dec-09 00:30N 34°40' E 135°27'3 6.4
2017-Dec-09 00:00N 34°39' E 135°24'510.3
2017-Dec-08 23:30N 34°36' E 135°18'510.5
2017-Dec-08 23:00N 34°35' E 135°12'611.1
2017-Dec-08 22:30N 34°35' E 135°05'611.2
2017-Dec-08 22:00N 34°37' E 134°59'5 8.5
2017-Dec-08 21:28N 34°35' E 134°54'4 8.6
2017-Dec-08 21:00N 34°33' E 134°50'4 7.3
2017-Dec-08 20:25N 34°32' E 134°45'109 7.4
2017-Dec-08 05:39N 34°12' E 132°35'210.7
2017-Dec-08 05:29N 34°11' E 132°33'3 4.4
2017-Dec-08 04:46N 34°15' E 132°33'0 0.0
2017-Dec-08 04:28N 34°15' E 132°33'0 0.4
2017-Dec-08 03:58N 34°15' E 132°33'0 0.0
2017-Dec-08 03:25N 34°15' E 132°33'0 0.0
2017-Dec-08 02:58N 34°15' E 132°33'0 0.0
2017-Dec-08 02:28N 34°15' E 132°33'0 0.0
2017-Dec-08 01:55N 34°15' E 132°33'0 0.0
2017-Dec-08 01:28N 34°15' E 132°33'0 0.0
2017-Dec-08 00:40N 34°15' E 132°33'0 0.0
2017-Dec-08 00:22N 34°15' E 132°33'0 0.0
2017-Dec-07 23:58N 34°15' E 132°33'0 0.0
2017-Dec-07 23:10N 34°15' E 132°33'0 0.0
2017-Dec-07 22:55N 34°15' E 132°33'0 0.0
2017-Dec-07 22:28N 34°15' E 132°33'0 0.0
2017-Dec-07 21:55N 34°15' E 132°33'0 0.0
2017-Dec-07 21:28N 34°15' E 132°33'0 0.0
2017-Dec-07 20:55N 34°15' E 132°33'0 0.0
2017-Dec-07 20:25N 34°15' E 132°33'0 0.0
2017-Dec-07 19:58N 34°15' E 132°33'0 0.0
2017-Dec-07 19:25N 34°15' E 132°33'0 0.0
2017-Dec-07 18:58N 34°15' E 132°33'0 0.0
2017-Dec-07 18:28N 34°15' E 132°33'0 0.0
2017-Dec-07 17:55N 34°15' E 132°33'0 0.0
2017-Dec-07 17:25N 34°15' E 132°33'0 0.0
2017-Dec-07 16:58N 34°15' E 132°33'0 0.0
2017-Dec-07 16:25N 34°15' E 132°33'0 0.0
2017-Dec-07 15:55N 34°15' E 132°33'0 0.0
2017-Dec-07 15:10N 34°15' E 132°33'0 0.0
2017-Dec-07 14:52N 34°15' E 132°33'0 0.0
2017-Dec-07 14:25N 34°15' E 132°33'0 0.0
2017-Dec-07 13:58N 34°15' E 132°33'0 0.0
2017-Dec-07 13:28N 34°15' E 132°33'0 0.0
2017-Dec-07 12:58N 34°15' E 132°33'0 0.0
2017-Dec-07 12:28N 34°15' E 132°33'0 0.0
2017-Dec-07 11:55N 34°15' E 132°33'0 0.0
2017-Dec-07 11:28N 34°15' E 132°33'0 0.0
2017-Dec-07 10:49N 34°15' E 132°33'0 0.0
2017-Dec-07 10:16N 34°15' E 132°33'0 0.0
2017-Dec-07 09:58N 34°15' E 132°33'0 0.0
2017-Dec-07 09:25N 34°15' E 132°33'0 0.0
2017-Dec-07 08:58N 34°15' E 132°33'0 0.0
2017-Dec-07 08:28N 34°15' E 132°33'0 0.0
2017-Dec-07 07:58N 34°15' E 132°33'0 0.0
2017-Dec-07 07:28N 34°15' E 132°33'0 0.0
2017-Dec-07 06:55N 34°15' E 132°33'0 0.0
2017-Dec-07 06:16N 34°15' E 132°33'0 0.0
2017-Dec-07 05:55N 34°15' E 132°33'0 0.0
2017-Dec-07 05:28N 34°15' E 132°33'0 0.0
2017-Dec-07 04:58N 34°15' E 132°33'0 0.0
2017-Dec-07 04:16N 34°15' E 132°33'0 0.0
2017-Dec-07 03:58N 34°15' E 132°33'0 0.0
2017-Dec-07 03:19N 34°15' E 132°33'0 0.0
2017-Dec-07 02:49N 34°15' E 132°33'0 0.0
2017-Dec-07 02:25N 34°15' E 132°33'0 0.0
2017-Dec-07 01:55N 34°15' E 132°33'0 0.0
2017-Dec-07 01:19N 34°15' E 132°33'0 0.0
2017-Dec-07 00:58N 34°15' E 132°33'0 0.0
2017-Dec-07 00:28N 34°15' E 132°33'0 0.0
2017-Dec-06 23:58N 34°15' E 132°33'0 0.0
2017-Dec-06 23:28N 34°15' E 132°33'0 0.0
2017-Dec-06 22:58N 34°15' E 132°33'0 0.0
2017-Dec-06 22:28N 34°15' E 132°33'0 0.0
2017-Dec-06 21:58N 34°15' E 132°33'0 0.0
2017-Dec-06 21:13N 34°15' E 132°33'0 0.0
2017-Dec-06 20:58N 34°15' E 132°33'  
2017-Dec-04 10:25N 34°15' E 132°33'0 0.0
2017-Dec-04 09:58N 34°15' E 132°33'0 0.0
2017-Dec-04 09:28N 34°15' E 132°33'0 0.0
2017-Dec-04 08:58N 34°15' E 132°33'0 0.0
2017-Dec-04 08:28N 34°15' E 132°33'0 0.0
2017-Dec-04 07:55N 34°15' E 132°33'0 0.0
2017-Dec-04 07:28N 34°15' E 132°33'0 0.0
2017-Dec-04 06:58N 34°15' E 132°33'0 0.0
2017-Dec-04 06:25N 34°15' E 132°33'0 0.0
2017-Dec-04 05:49N 34°15' E 132°33'0 0.2
2017-Dec-04 05:30N 34°15' E 132°33'2 4.2
2017-Dec-04 04:57N 34°16' E 132°30'2 4.8
2017-Dec-04 04:30N 34°15' E 132°32'0 0.8
2017-Dec-04 04:00N 34°15' E 132°33'0 0.0
2017-Dec-04 03:30N 34°15' E 132°33'0 0.0
2017-Dec-04 03:00N 34°15' E 132°33'0 0.0
2017-Dec-04 02:30N 34°15' E 132°33'0 0.0
2017-Dec-04 02:00N 34°15' E 132°33'0 0.0
2017-Dec-04 01:30N 34°15' E 132°33'0 0.0
2017-Dec-04 00:57N 34°15' E 132°33'0 0.0
2017-Dec-04 00:26N 34°15' E 132°33'0 0.0
2017-Dec-03 23:59N 34°15' E 132°33'0 0.0
2017-Dec-03 23:29N 34°15' E 132°33'0 0.0
2017-Dec-03 22:59N 34°15' E 132°33'0 0.0
2017-Dec-03 22:29N 34°15' E 132°33'0 0.0
2017-Dec-03 21:56N 34°15' E 132°33'0 0.0
2017-Dec-03 21:20N 34°15' E 132°33'0 0.0
2017-Dec-03 20:59N 34°15' E 132°33'0 0.0
2017-Dec-03 20:23N 34°15' E 132°33'0 0.0
2017-Dec-03 19:59N 34°15' E 132°33'0 0.0
2017-Dec-03 19:29N 34°15' E 132°33'0 0.0
2017-Dec-03 18:53N 34°15' E 132°33'0 0.0
2017-Dec-03 18:29N 34°15' E 132°33'0 0.0
2017-Dec-03 17:56N 34°15' E 132°33'0 0.0
2017-Dec-03 17:29N 34°15' E 132°33'0 0.0
2017-Dec-03 16:59N 34°15' E 132°33'0 0.0
2017-Dec-03 16:29N 34°15' E 132°33'0 0.0
2017-Dec-03 15:59N 34°15' E 132°33'0 0.0
2017-Dec-03 15:29N 34°15' E 132°33'0 0.0
2017-Dec-03 14:59N 34°15' E 132°33'0 0.0
2017-Dec-03 14:29N 34°15' E 132°33'0 0.0
2017-Dec-03 13:59N 34°15' E 132°33'0 0.0
2017-Dec-03 13:29N 34°15' E 132°33'0 0.0
2017-Dec-03 12:23N 34°15' E 132°33'0 0.0
2017-Dec-03 11:59N 34°15' E 132°33'0 0.0
2017-Dec-03 11:23N 34°15' E 132°33'0 0.0
2017-Dec-03 10:59N 34°15' E 132°33'0 0.0
2017-Dec-03 10:29N 34°15' E 132°33'0 0.0
2017-Dec-03 09:59N 34°15' E 132°33'0 0.0
2017-Dec-03 09:26N 34°15' E 132°33'0 0.0
2017-Dec-03 08:59N 34°15' E 132°33'0 0.0
2017-Dec-03 08:29N 34°15' E 132°33'0 0.0
2017-Dec-03 07:56N 34°15' E 132°33'0 0.0
2017-Dec-03 07:14N 34°15' E 132°33'0 0.0
2017-Dec-03 06:53N 34°15' E 132°33'0 0.0
2017-Dec-03 06:23N 34°15' E 132°33'0 0.0
2017-Dec-03 05:50N 34°15' E 132°33'0 0.0
2017-Dec-03 05:26N 34°15' E 132°33'0 0.0
2017-Dec-03 04:59N 34°15' E 132°33'0 0.0
2017-Dec-03 04:29N 34°15' E 132°33'0 0.0
2017-Dec-03 03:53N 34°15' E 132°33'0 0.0
2017-Dec-03 03:26N 34°15' E 132°33'0 0.0
2017-Dec-03 02:59N 34°15' E 132°33'0 0.0
2017-Dec-03 02:29N 34°15' E 132°33'0 0.0
2017-Dec-03 01:53N 34°15' E 132°33'0 0.0
2017-Dec-03 01:29N 34°15' E 132°33'0 0.0
2017-Dec-03 00:53N 34°15' E 132°33'0 0.0
2017-Dec-03 00:23N 34°15' E 132°33'0 0.0
2017-Dec-02 23:56N 34°15' E 132°33'0 0.0
2017-Dec-02 23:29N 34°15' E 132°33'0 0.0
2017-Dec-02 22:55N 34°15' E 132°33'0 0.0
2017-Dec-02 22:14N 34°15' E 132°33'0 0.0
2017-Dec-02 21:59N 34°15' E 132°33'0 0.0
2017-Dec-02 21:29N 34°15' E 132°33'0 0.0
2017-Dec-02 20:47N 34°15' E 132°33'0 0.0
2017-Dec-02 20:26N 34°15' E 132°33'0 0.0
2017-Dec-02 19:59N 34°15' E 132°33'0 0.0
2017-Dec-02 19:29N 34°15' E 132°33'0 0.0
2017-Dec-02 18:59N 34°15' E 132°33'0 0.0
2017-Dec-02 18:29N 34°15' E 132°33'0 0.0
2017-Dec-02 17:59N 34°15' E 132°33'0 0.0
2017-Dec-02 17:29N 34°15' E 132°33'0 0.0
2017-Dec-02 16:53N 34°15' E 132°33'0 0.0
2017-Dec-02 16:29N 34°15' E 132°33'0 0.0
2017-Dec-02 15:59N 34°15' E 132°33'0 0.0
2017-Dec-02 15:29N 34°15' E 132°33'0 0.0
2017-Dec-02 14:59N 34°15' E 132°33'0 0.0
2017-Dec-02 14:29N 34°15' E 132°33'0 0.0
2017-Dec-02 13:59N 34°15' E 132°33'0 0.0
2017-Dec-02 13:29N 34°15' E 132°33'0 0.0
2017-Dec-02 12:59N 34°15' E 132°33'0 0.0
2017-Dec-02 12:26N 34°15' E 132°33'0 0.0
2017-Dec-02 11:59N 34°15' E 132°33'0 0.0
2017-Dec-02 11:26N 34°15' E 132°33'0 0.0
2017-Dec-02 10:59N 34°15' E 132°33'0 0.0
2017-Dec-02 10:29N 34°15' E 132°33'0 0.0
2017-Dec-02 09:59N 34°15' E 132°33'0 0.0
2017-Dec-02 09:23N 34°15' E 132°33'0 0.0
2017-Dec-02 08:59N 34°15' E 132°33'0 0.0
2017-Dec-02 08:23N 34°15' E 132°33'0 0.0
2017-Dec-02 07:53N 34°15' E 132°33'0 0.0
2017-Dec-02 07:23N 34°15' E 132°33'0 0.0
2017-Dec-02 06:53N 34°15' E 132°33'0 0.9
2017-Dec-02 06:29N 34°15' E 132°32'1 2.4
2017-Dec-02 06:00N 34°14' E 132°32'10 4.3
2017-Dec-02 03:35N 34°04' E 132°36'1 8.4
2017-Dec-02 03:30N 34°04' E 132°37'108 6.5
2017-Dec-01 10:44N 34°32' E 134°43'6 8.3
2017-Dec-01 10:04N 34°34' E 134°50'1 9.5
2017-Dec-01 09:59N 34°35' E 134°51'5 9.4
2017-Dec-01 09:30N 34°36' E 134°56'5 9.0
2017-Dec-01 09:00N 34°37' E 135°01'4 9.1
2017-Dec-01 08:30N 34°35' E 135°06'4 8.6
2017-Dec-01 08:00N 34°31' E 135°04'4 8.2
2017-Dec-01 07:30N 34°27' E 135°03'4 7.9
2017-Dec-01 07:00N 34°23' E 135°02'4 7.4
2017-Dec-01 06:30N 34°19' E 135°00'4 7.1
2017-Dec-01 06:00N 34°16' E 134°60'  

Dump ship's entire track history